EWG3ZX EDDK-LDSP
Flight info
| Callsign | EWG3ZX |
|---|---|
| Flight time | N/A |
| Altitude | 37000 |
| Route | KUMIK2Q KUMIK L603 TESGA DCT ESATI DCT DETEV DCT DINKU M867 XERUM DCT BAVAX DCT RADIZ DCT ALIVO DCT NUPSO |
| Aircraft | A320/M-SDE3FGHIRWY/LB1 |
Departure
| Time | 2026-04-30 07:58 |
|---|---|
| Airport | Cologne Bonn Airport (EDDK) |
Arrival
| Time | N/A |
|---|---|
| Airport | Split Saint Jerome Airport (LDSP) |
| Time | Latitude | Longitude | Altitude | Speed | Heading |
|---|---|---|---|---|---|
| 2026-04-30 07:47 | 50.87688 | 7.12194 | 232 ft | 0 kts | 52° |
| 2026-04-30 07:49 | 50.87688 | 7.12193 | 233 ft | 0 kts | 52° |
| 2026-04-30 07:51 | 50.87679 | 7.12175 | 233 ft | 4 kts | 52° |
| 2026-04-30 07:51 | 50.87663 | 7.12141 | 232 ft | 4 kts | 53° |
| 2026-04-30 07:51 | 50.87650 | 7.12114 | 233 ft | 4 kts | 59° |
| 2026-04-30 07:51 | 50.87641 | 7.12076 | 235 ft | 4 kts | 95° |
| 2026-04-30 07:52 | 50.87644 | 7.12053 | 236 ft | 1 kts | 117° |
| 2026-04-30 07:54 | 50.87642 | 7.12058 | 232 ft | 3 kts | 118° |
| 2026-04-30 07:54 | 50.87617 | 7.12133 | 232 ft | 13 kts | 118° |
| 2026-04-30 07:54 | 50.87571 | 7.12271 | 232 ft | 15 kts | 118° |
| 2026-04-30 07:55 | 50.87551 | 7.12426 | 232 ft | 16 kts | 55° |
| 2026-04-30 07:55 | 50.87655 | 7.12493 | 232 ft | 17 kts | 18° |
| 2026-04-30 07:55 | 50.87771 | 7.12553 | 232 ft | 18 kts | 18° |
| 2026-04-30 07:55 | 50.87898 | 7.12618 | 232 ft | 20 kts | 18° |
| 2026-04-30 07:56 | 50.87995 | 7.12766 | 236 ft | 19 kts | 66° |
| 2026-04-30 07:56 | 50.88008 | 7.12958 | 239 ft | 17 kts | 106° |
| 2026-04-30 07:56 | 50.87980 | 7.13007 | 239 ft | 0 kts | 137° |
| 2026-04-30 07:57 | 50.87976 | 7.13013 | 239 ft | 5 kts | 137° |
| 2026-04-30 07:57 | 50.87797 | 7.13277 | 239 ft | 71 kts | 137° |
| 2026-04-30 07:57 | 50.87275 | 7.14034 | 244 ft | 129 kts | 136° |
| 2026-04-30 07:57 | 50.86511 | 7.15130 | 438 ft | 156 kts | 136° |
| 2026-04-30 07:58 | 50.85703 | 7.16236 | 1327 ft | 151 kts | 136° |
| 2026-04-30 07:58 | 50.84876 | 7.17349 | 2088 ft | 166 kts | 136° |
| 2026-04-30 07:58 | 50.83961 | 7.18562 | 2720 ft | 174 kts | 137° |
| 2026-04-30 07:58 | 50.83011 | 7.19820 | 3499 ft | 180 kts | 134° |
| 2026-04-30 07:59 | 50.82151 | 7.21309 | 4250 ft | 186 kts | 123° |
| 2026-04-30 07:59 | 50.81531 | 7.23216 | 4725 ft | 207 kts | 112° |
| 2026-04-30 07:59 | 50.80947 | 7.25435 | 5163 ft | 231 kts | 111° |
| 2026-04-30 08:00 | 50.79669 | 7.30382 | 6722 ft | 250 kts | 110° |
| 2026-04-30 08:00 | 50.79005 | 7.32955 | 7587 ft | 255 kts | 110° |
| 2026-04-30 08:00 | 50.78326 | 7.35567 | 8474 ft | 259 kts | 110° |
| 2026-04-30 08:00 | 50.77635 | 7.38218 | 9350 ft | 263 kts | 110° |
| 2026-04-30 08:01 | 50.76931 | 7.40913 | 10239 ft | 267 kts | 110° |
| 2026-04-30 08:01 | 50.76208 | 7.43676 | 10832 ft | 282 kts | 110° |
| 2026-04-30 08:01 | 50.75170 | 7.46467 | 11104 ft | 309 kts | 124° |
| 2026-04-30 08:01 | 50.73828 | 7.49248 | 11524 ft | 325 kts | 124° |
| 2026-04-30 08:02 | 50.70997 | 7.54977 | 12969 ft | 336 kts | 125° |
| 2026-04-30 08:02 | 50.69546 | 7.57892 | 13730 ft | 340 kts | 124° |
| 2026-04-30 08:03 | 50.66597 | 7.63839 | 15090 ft | 348 kts | 124° |
| 2026-04-30 08:03 | 50.63584 | 7.69921 | 16431 ft | 355 kts | 124° |
| 2026-04-30 08:03 | 50.62055 | 7.73003 | 17080 ft | 359 kts | 124° |
| 2026-04-30 08:04 | 50.60509 | 7.76114 | 17715 ft | 363 kts | 124° |
| 2026-04-30 08:04 | 50.58946 | 7.79261 | 18353 ft | 366 kts | 124° |
| 2026-04-30 08:04 | 50.57374 | 7.82435 | 18940 ft | 370 kts | 124° |
| 2026-04-30 08:04 | 50.56588 | 7.84024 | 19205 ft | 372 kts | 124° |
| 2026-04-30 08:05 | 50.54990 | 7.87244 | 19754 ft | 375 kts | 124° |
| 2026-04-30 08:05 | 50.53371 | 7.90489 | 20266 ft | 379 kts | 124° |
| 2026-04-30 08:05 | 50.51730 | 7.93761 | 20790 ft | 383 kts | 124° |
| 2026-04-30 08:05 | 50.50074 | 7.97063 | 21301 ft | 387 kts | 124° |
| 2026-04-30 08:06 | 50.48402 | 8.00404 | 21808 ft | 390 kts | 124° |
| 2026-04-30 08:06 | 50.46715 | 8.03773 | 22313 ft | 394 kts | 124° |
| 2026-04-30 08:06 | 50.45012 | 8.07165 | 22805 ft | 397 kts | 124° |
| 2026-04-30 08:06 | 50.43293 | 8.10584 | 23294 ft | 401 kts | 124° |
| 2026-04-30 08:07 | 50.41553 | 8.14035 | 23767 ft | 404 kts | 124° |
| 2026-04-30 08:07 | 50.39805 | 8.17505 | 24211 ft | 407 kts | 124° |
| 2026-04-30 08:07 | 50.38041 | 8.21001 | 24621 ft | 410 kts | 124° |
| 2026-04-30 08:07 | 50.36267 | 8.24511 | 25059 ft | 412 kts | 124° |
| 2026-04-30 08:08 | 50.34517 | 8.27966 | 25443 ft | 414 kts | 124° |
| 2026-04-30 08:08 | 50.32685 | 8.31573 | 25849 ft | 416 kts | 124° |
| 2026-04-30 08:08 | 50.30881 | 8.35125 | 26241 ft | 418 kts | 123° |
| 2026-04-30 08:08 | 50.29067 | 8.38691 | 26632 ft | 420 kts | 123° |
| 2026-04-30 08:09 | 50.27270 | 8.42232 | 27016 ft | 422 kts | 123° |
| 2026-04-30 08:09 | 50.25441 | 8.45838 | 27404 ft | 424 kts | 123° |
| 2026-04-30 08:09 | 50.23600 | 8.49457 | 27802 ft | 426 kts | 123° |
| 2026-04-30 08:09 | 50.21744 | 8.53091 | 28177 ft | 429 kts | 123° |
| 2026-04-30 08:10 | 50.19875 | 8.56735 | 28557 ft | 431 kts | 123° |
| 2026-04-30 08:10 | 50.17994 | 8.60399 | 28922 ft | 433 kts | 123° |
| 2026-04-30 08:10 | 50.16108 | 8.64075 | 29266 ft | 435 kts | 123° |
| 2026-04-30 08:10 | 50.14212 | 8.67767 | 29608 ft | 437 kts | 123° |
| 2026-04-30 08:11 | 50.12306 | 8.71471 | 29935 ft | 439 kts | 123° |
| 2026-04-30 08:11 | 50.10390 | 8.75189 | 30274 ft | 441 kts | 123° |
| 2026-04-30 08:11 | 50.08466 | 8.78913 | 30584 ft | 443 kts | 123° |
| 2026-04-30 08:11 | 50.06525 | 8.82661 | 30866 ft | 445 kts | 123° |
| 2026-04-30 08:12 | 50.04581 | 8.86411 | 31178 ft | 445 kts | 123° |
| 2026-04-30 08:12 | 50.02642 | 8.90149 | 31584 ft | 443 kts | 123° |
| 2026-04-30 08:12 | 50.00712 | 8.93873 | 31993 ft | 441 kts | 123° |
| 2026-04-30 08:12 | 49.98791 | 8.97577 | 32381 ft | 440 kts | 123° |
| 2026-04-30 08:13 | 49.96869 | 9.01273 | 32769 ft | 439 kts | 123° |
| 2026-04-30 08:13 | 49.94952 | 9.04947 | 33154 ft | 438 kts | 123° |
| 2026-04-30 08:13 | 49.93031 | 9.08618 | 33535 ft | 437 kts | 123° |
| 2026-04-30 08:13 | 49.91120 | 9.12271 | 33920 ft | 436 kts | 123° |
| 2026-04-30 08:14 | 49.89212 | 9.15919 | 34300 ft | 434 kts | 123° |
| 2026-04-30 08:14 | 49.87308 | 9.19556 | 34629 ft | 434 kts | 123° |
| 2026-04-30 08:14 | 49.85406 | 9.23183 | 34919 ft | 434 kts | 123° |
| 2026-04-30 08:14 | 49.83500 | 9.26811 | 35181 ft | 434 kts | 124° |
| 2026-04-30 08:15 | 49.81593 | 9.30437 | 35433 ft | 435 kts | 124° |
| 2026-04-30 08:15 | 49.79680 | 9.34069 | 35681 ft | 435 kts | 124° |
| 2026-04-30 08:15 | 49.77764 | 9.37699 | 35944 ft | 436 kts | 124° |
| 2026-04-30 08:15 | 49.75845 | 9.41326 | 36190 ft | 436 kts | 124° |
| 2026-04-30 08:16 | 49.73920 | 9.44961 | 36431 ft | 436 kts | 124° |
| 2026-04-30 08:16 | 49.71997 | 9.48592 | 36667 ft | 437 kts | 124° |
| 2026-04-30 08:16 | 49.70074 | 9.52221 | 36897 ft | 437 kts | 124° |
| 2026-04-30 08:16 | 49.68146 | 9.55853 | 37124 ft | 437 kts | 124° |
| 2026-04-30 08:17 | 49.66215 | 9.59485 | 37359 ft | 438 kts | 124° |
| 2026-04-30 08:17 | 49.64283 | 9.63115 | 37593 ft | 438 kts | 124° |
| 2026-04-30 08:17 | 49.62344 | 9.66745 | 37817 ft | 438 kts | 124° |
| 2026-04-30 08:17 | 49.60406 | 9.70367 | 38029 ft | 438 kts | 124° |
| 2026-04-30 08:18 | 49.58462 | 9.73995 | 38233 ft | 439 kts | 124° |
| 2026-04-30 08:18 | 49.56518 | 9.77623 | 38438 ft | 439 kts | 124° |
| 2026-04-30 08:18 | 49.54569 | 9.81254 | 38642 ft | 440 kts | 124° |
| 2026-04-30 08:18 | 49.52617 | 9.84883 | 38836 ft | 440 kts | 124° |
| 2026-04-30 08:19 | 49.50663 | 9.88512 | 39027 ft | 441 kts | 124° |
| 2026-04-30 08:19 | 49.48705 | 9.92146 | 39174 ft | 441 kts | 124° |
| 2026-04-30 08:19 | 49.46748 | 9.95781 | 39340 ft | 441 kts | 124° |
| 2026-04-30 08:20 | 49.42820 | 10.03067 | 39414 ft | 444 kts | 125° |
| 2026-04-30 08:20 | 49.38865 | 10.10357 | 39409 ft | 444 kts | 125° |
| 2026-04-30 08:21 | 49.34901 | 10.17640 | 39410 ft | 445 kts | 125° |
| 2026-04-30 08:21 | 49.30921 | 10.24907 | 39431 ft | 447 kts | 128° |
| 2026-04-30 08:22 | 49.26353 | 10.31463 | 39435 ft | 451 kts | 133° |
| 2026-04-30 08:22 | 49.21709 | 10.37919 | 39434 ft | 451 kts | 133° |
| 2026-04-30 08:23 | 49.17060 | 10.44373 | 39436 ft | 451 kts | 133° |
| 2026-04-30 08:23 | 49.12413 | 10.50829 | 39439 ft | 452 kts | 133° |
| 2026-04-30 08:24 | 49.07763 | 10.57283 | 39437 ft | 452 kts | 133° |
| 2026-04-30 08:24 | 49.03100 | 10.63742 | 39435 ft | 453 kts | 133° |
| 2026-04-30 08:25 | 48.98429 | 10.70185 | 39429 ft | 453 kts | 133° |
| 2026-04-30 08:25 | 48.93748 | 10.76615 | 39425 ft | 454 kts | 133° |
| 2026-04-30 08:26 | 48.89058 | 10.83049 | 39425 ft | 454 kts | 134° |
| 2026-04-30 08:26 | 48.84357 | 10.89475 | 39416 ft | 455 kts | 134° |
| 2026-04-30 08:27 | 48.80442 | 10.94817 | 39413 ft | 455 kts | 134° |
| 2026-04-30 08:27 | 48.75723 | 11.01238 | 39414 ft | 456 kts | 134° |
| 2026-04-30 08:28 | 48.70996 | 11.07645 | 39415 ft | 456 kts | 134° |
| 2026-04-30 08:28 | 48.66266 | 11.14059 | 39414 ft | 457 kts | 134° |
| 2026-04-30 08:29 | 48.61520 | 11.20468 | 39420 ft | 458 kts | 134° |
| 2026-04-30 08:29 | 48.56764 | 11.26874 | 39420 ft | 458 kts | 134° |
| 2026-04-30 08:30 | 48.51996 | 11.33283 | 39415 ft | 459 kts | 134° |
| 2026-04-30 08:30 | 48.47226 | 11.39686 | 39404 ft | 460 kts | 134° |
| 2026-04-30 08:31 | 48.42443 | 11.46083 | 39409 ft | 460 kts | 134° |
| 2026-04-30 08:31 | 48.37641 | 11.52474 | 39411 ft | 461 kts | 134° |
| 2026-04-30 08:32 | 48.32830 | 11.58861 | 39410 ft | 461 kts | 134° |
| 2026-04-30 08:32 | 48.28012 | 11.65242 | 39413 ft | 462 kts | 134° |
| 2026-04-30 08:33 | 48.23215 | 11.71663 | 39412 ft | 462 kts | 133° |
| 2026-04-30 08:33 | 48.18486 | 11.78205 | 39406 ft | 463 kts | 133° |
| 2026-04-30 08:34 | 48.13759 | 11.84774 | 39409 ft | 464 kts | 133° |
| 2026-04-30 08:34 | 48.09000 | 11.91319 | 39403 ft | 465 kts | 134° |
| 2026-04-30 08:35 | 48.04214 | 11.97839 | 39399 ft | 466 kts | 134° |
| 2026-04-30 08:35 | 47.99412 | 12.04348 | 39398 ft | 466 kts | 134° |
| 2026-04-30 08:36 | 47.94608 | 12.10865 | 39398 ft | 467 kts | 134° |
| 2026-04-30 08:36 | 47.89802 | 12.17377 | 39392 ft | 467 kts | 134° |
| 2026-04-30 08:37 | 47.84981 | 12.23886 | 39388 ft | 468 kts | 134° |
| 2026-04-30 08:37 | 47.80150 | 12.30396 | 39385 ft | 469 kts | 134° |
| 2026-04-30 08:38 | 47.75315 | 12.36898 | 39378 ft | 469 kts | 134° |
| 2026-04-30 08:38 | 47.70467 | 12.43393 | 39375 ft | 469 kts | 135° |
| 2026-04-30 08:39 | 47.65613 | 12.49877 | 39367 ft | 470 kts | 135° |
| 2026-04-30 08:39 | 47.60591 | 12.56105 | 39360 ft | 472 kts | 141° |
| 2026-04-30 08:40 | 47.55309 | 12.61894 | 39356 ft | 473 kts | 141° |
| 2026-04-30 08:40 | 47.50027 | 12.67662 | 39343 ft | 472 kts | 141° |
| 2026-04-30 08:41 | 47.44737 | 12.73435 | 39331 ft | 472 kts | 141° |
| 2026-04-30 08:41 | 47.39445 | 12.79193 | 39330 ft | 473 kts | 141° |
| 2026-04-30 08:42 | 47.34145 | 12.84955 | 39329 ft | 473 kts | 141° |
| 2026-04-30 08:42 | 47.28839 | 12.90706 | 39330 ft | 473 kts | 141° |
| 2026-04-30 08:43 | 47.23522 | 12.96443 | 39327 ft | 474 kts | 142° |
| 2026-04-30 08:43 | 47.18202 | 13.02173 | 39327 ft | 474 kts | 142° |
| 2026-04-30 08:44 | 47.12883 | 13.07889 | 39331 ft | 473 kts | 142° |
| 2026-04-30 08:44 | 47.07560 | 13.13587 | 39329 ft | 473 kts | 142° |
| 2026-04-30 08:45 | 47.02241 | 13.19267 | 39338 ft | 473 kts | 142° |
| 2026-04-30 08:45 | 46.96931 | 13.24945 | 39340 ft | 473 kts | 142° |
| 2026-04-30 08:46 | 46.91615 | 13.30605 | 39345 ft | 473 kts | 143° |
| 2026-04-30 08:46 | 46.86281 | 13.36240 | 39351 ft | 473 kts | 143° |
| 2026-04-30 08:47 | 46.80953 | 13.41870 | 39358 ft | 473 kts | 143° |
| 2026-04-30 08:47 | 46.75630 | 13.47508 | 39361 ft | 473 kts | 143° |
| 2026-04-30 08:48 | 46.70302 | 13.53128 | 39366 ft | 473 kts | 143° |
| 2026-04-30 08:48 | 46.64971 | 13.58731 | 39368 ft | 472 kts | 143° |
| 2026-04-30 08:49 | 46.59643 | 13.64321 | 39371 ft | 472 kts | 144° |
| 2026-04-30 08:49 | 46.54312 | 13.69899 | 39373 ft | 472 kts | 144° |
| 2026-04-30 08:50 | 46.48967 | 13.75462 | 39376 ft | 473 kts | 144° |
| 2026-04-30 08:50 | 46.43609 | 13.81020 | 39373 ft | 474 kts | 144° |
| 2026-04-30 08:51 | 46.38249 | 13.86586 | 39362 ft | 474 kts | 144° |
| 2026-04-30 08:51 | 46.32876 | 13.92150 | 39354 ft | 475 kts | 144° |
| 2026-04-30 08:52 | 46.27492 | 13.97717 | 39356 ft | 476 kts | 144° |
| 2026-04-30 08:52 | 46.22044 | 14.03190 | 39360 ft | 477 kts | 147° |
| 2026-04-30 08:53 | 46.16416 | 14.08310 | 39367 ft | 479 kts | 149° |
| 2026-04-30 08:53 | 46.10726 | 14.13321 | 39366 ft | 480 kts | 148° |
| 2026-04-30 08:54 | 46.05045 | 14.18405 | 39367 ft | 481 kts | 148° |
| 2026-04-30 08:54 | 45.99372 | 14.23555 | 39362 ft | 483 kts | 148° |
| 2026-04-30 08:55 | 45.93684 | 14.28715 | 39359 ft | 484 kts | 148° |
| 2026-04-30 08:55 | 45.87973 | 14.33867 | 39353 ft | 486 kts | 148° |
| 2026-04-30 08:56 | 45.82234 | 14.39013 | 39355 ft | 487 kts | 148° |
| 2026-04-30 08:56 | 45.76471 | 14.44144 | 39358 ft | 488 kts | 149° |
| 2026-04-30 08:57 | 45.70618 | 14.49098 | 39367 ft | 489 kts | 150° |
| 2026-04-30 08:57 | 45.64699 | 14.53920 | 39375 ft | 490 kts | 150° |
| 2026-04-30 08:58 | 45.58770 | 14.58729 | 39375 ft | 490 kts | 152° |
| 2026-04-30 08:58 | 45.52676 | 14.63095 | 39373 ft | 490 kts | 156° |
| 2026-04-30 08:59 | 45.46456 | 14.67055 | 39364 ft | 490 kts | 157° |
| 2026-04-30 08:59 | 45.40242 | 14.71046 | 39356 ft | 490 kts | 156° |
| 2026-04-30 09:00 | 45.34066 | 14.75172 | 39333 ft | 491 kts | 156° |
| 2026-04-30 09:00 | 45.27883 | 14.79335 | 39341 ft | 492 kts | 155° |
| 2026-04-30 09:01 | 45.21733 | 14.83432 | 39358 ft | 491 kts | 156° |
| 2026-04-30 09:01 | 45.15556 | 14.87520 | 39365 ft | 489 kts | 156° |
| 2026-04-30 09:02 | 45.06321 | 14.93611 | 39363 ft | 487 kts | 156° |
| 2026-04-30 09:02 | 45.00172 | 14.97657 | 39357 ft | 487 kts | 156° |
| 2026-04-30 09:03 | 44.94020 | 15.01695 | 39336 ft | 488 kts | 157° |
| 2026-04-30 09:03 | 44.87853 | 15.05735 | 39322 ft | 489 kts | 157° |
| 2026-04-30 09:04 | 44.81674 | 15.09775 | 39313 ft | 489 kts | 157° |
| 2026-04-30 09:04 | 44.78595 | 15.11785 | 38935 ft | 487 kts | 157° |
| 2026-04-30 09:04 | 44.75529 | 15.13785 | 38296 ft | 485 kts | 157° |
| 2026-04-30 09:05 | 44.72472 | 15.15775 | 37643 ft | 484 kts | 158° |
| 2026-04-30 09:05 | 44.69410 | 15.17767 | 36965 ft | 484 kts | 158° |
| 2026-04-30 09:05 | 44.66358 | 15.19752 | 36286 ft | 484 kts | 158° |
| 2026-04-30 09:05 | 44.63300 | 15.21736 | 35602 ft | 485 kts | 158° |
| 2026-04-30 09:06 | 44.60237 | 15.23719 | 34921 ft | 485 kts | 158° |
| 2026-04-30 09:06 | 44.57163 | 15.25683 | 34212 ft | 485 kts | 161° |
| 2026-04-30 09:06 | 44.55015 | 15.26687 | 33678 ft | 479 kts | 169° |
| 2026-04-30 09:06 | 44.51786 | 15.27861 | 32789 ft | 480 kts | 169° |
| 2026-04-30 09:07 | 44.48543 | 15.29027 | 31942 ft | 482 kts | 170° |
| 2026-04-30 09:07 | 44.45307 | 15.30178 | 31328 ft | 477 kts | 170° |
| 2026-04-30 09:07 | 44.42108 | 15.31307 | 30734 ft | 472 kts | 170° |
| 2026-04-30 09:07 | 44.38933 | 15.32422 | 30111 ft | 468 kts | 170° |
| 2026-04-30 09:08 | 44.35787 | 15.33529 | 29454 ft | 464 kts | 170° |
| 2026-04-30 09:08 | 44.32669 | 15.34626 | 28826 ft | 460 kts | 170° |
| 2026-04-30 09:08 | 44.29574 | 15.35716 | 28197 ft | 456 kts | 170° |
| 2026-04-30 09:08 | 44.26554 | 15.36780 | 27599 ft | 452 kts | 170° |
| 2026-04-30 09:09 | 44.23480 | 15.37862 | 27002 ft | 448 kts | 170° |
| 2026-04-30 09:09 | 44.20511 | 15.38910 | 26429 ft | 444 kts | 170° |
| 2026-04-30 09:09 | 44.17529 | 15.39962 | 25849 ft | 440 kts | 170° |
| 2026-04-30 09:09 | 44.14528 | 15.41019 | 25300 ft | 437 kts | 170° |
| 2026-04-30 09:10 | 44.11634 | 15.42036 | 24764 ft | 433 kts | 170° |
| 2026-04-30 09:10 | 44.08685 | 15.43072 | 24228 ft | 430 kts | 169° |
| 2026-04-30 09:10 | 44.05839 | 15.44071 | 23696 ft | 426 kts | 169° |
| 2026-04-30 09:10 | 44.02978 | 15.45073 | 23094 ft | 422 kts | 169° |
| 2026-04-30 09:11 | 44.00140 | 15.46068 | 22536 ft | 419 kts | 169° |
| 2026-04-30 09:11 | 43.97325 | 15.47051 | 21985 ft | 415 kts | 169° |
| 2026-04-30 09:11 | 43.94535 | 15.48038 | 21447 ft | 412 kts | 169° |
| 2026-04-30 09:11 | 43.91767 | 15.49015 | 20923 ft | 409 kts | 169° |
| 2026-04-30 09:12 | 43.89016 | 15.49978 | 20277 ft | 409 kts | 169° |
| 2026-04-30 09:12 | 43.86273 | 15.50939 | 19856 ft | 404 kts | 167° |
| 2026-04-30 09:12 | 43.83603 | 15.52104 | 19393 ft | 401 kts | 164° |
| 2026-04-30 09:12 | 43.80967 | 15.53340 | 18813 ft | 399 kts | 163° |
| 2026-04-30 09:13 | 43.78360 | 15.54611 | 18345 ft | 396 kts | 162° |
| 2026-04-30 09:13 | 43.75764 | 15.55891 | 17771 ft | 395 kts | 162° |
| 2026-04-30 09:13 | 43.73185 | 15.57164 | 17207 ft | 394 kts | 162° |
| 2026-04-30 09:13 | 43.70606 | 15.58427 | 16663 ft | 392 kts | 162° |
| 2026-04-30 09:14 | 43.68034 | 15.59670 | 16110 ft | 391 kts | 162° |
| 2026-04-30 09:14 | 43.65470 | 15.60897 | 15579 ft | 389 kts | 161° |
| 2026-04-30 09:14 | 43.62915 | 15.62113 | 15056 ft | 387 kts | 161° |
| 2026-04-30 09:14 | 43.60377 | 15.63319 | 14553 ft | 386 kts | 161° |
| 2026-04-30 09:15 | 43.57837 | 15.64525 | 14036 ft | 384 kts | 161° |
| 2026-04-30 09:15 | 43.55318 | 15.65719 | 13483 ft | 382 kts | 160° |
| 2026-04-30 09:15 | 43.52813 | 15.66909 | 12918 ft | 379 kts | 160° |
| 2026-04-30 09:15 | 43.50329 | 15.68089 | 12378 ft | 376 kts | 160° |
| 2026-04-30 09:16 | 43.47862 | 15.69259 | 11831 ft | 373 kts | 160° |
| 2026-04-30 09:16 | 43.45416 | 15.70419 | 11311 ft | 370 kts | 160° |
| 2026-04-30 09:16 | 43.42994 | 15.71570 | 10788 ft | 367 kts | 160° |
| 2026-04-30 09:16 | 43.40590 | 15.72709 | 10278 ft | 364 kts | 160° |
| 2026-04-30 09:17 | 43.38208 | 15.73836 | 9733 ft | 361 kts | 160° |
| 2026-04-30 09:17 | 43.35844 | 15.74958 | 9176 ft | 358 kts | 160° |
| 2026-04-30 09:17 | 43.33503 | 15.76072 | 8633 ft | 355 kts | 160° |
| 2026-04-30 09:17 | 43.31183 | 15.77178 | 8103 ft | 351 kts | 159° |
| 2026-04-30 09:18 | 43.29116 | 15.78776 | 7560 ft | 332 kts | 135° |
| 2026-04-30 09:18 | 43.27810 | 15.81216 | 7177 ft | 306 kts | 110° |
| 2026-04-30 09:18 | 43.27354 | 15.83942 | 6816 ft | 287 kts | 88° |
| 2026-04-30 09:18 | 43.27642 | 15.86492 | 6461 ft | 278 kts | 67° |
| 2026-04-30 09:19 | 43.28213 | 15.88088 | 6193 ft | 272 kts | 53° |
| 2026-04-30 09:19 | 43.29445 | 15.90008 | 5824 ft | 266 kts | 44° |
| 2026-04-30 09:19 | 43.30738 | 15.91803 | 5466 ft | 262 kts | 45° |
| 2026-04-30 09:19 | 43.32003 | 15.93567 | 5105 ft | 255 kts | 45° |
| 2026-04-30 09:20 | 43.33211 | 15.95253 | 4743 ft | 240 kts | 46° |
| 2026-04-30 09:20 | 43.34345 | 15.96846 | 4380 ft | 227 kts | 46° |
| 2026-04-30 09:20 | 43.35430 | 15.98367 | 4045 ft | 221 kts | 46° |
| 2026-04-30 09:20 | 43.36491 | 15.99853 | 3705 ft | 214 kts | 46° |
| 2026-04-30 09:21 | 43.37510 | 16.01280 | 3384 ft | 205 kts | 45° |
| 2026-04-30 09:21 | 43.38488 | 16.02651 | 3047 ft | 197 kts | 45° |